createdAt,value
2024-03-28T00:02:22.866Z,79.42
2024-03-28T00:04:50.962Z,79.40
2024-03-28T00:07:19.211Z,79.73
2024-03-28T00:09:47.472Z,79.85
2024-03-28T00:12:15.717Z,79.84
2024-03-28T00:14:43.925Z,79.95
2024-03-28T00:17:12.153Z,80.25
2024-03-28T00:19:40.327Z,80.39
2024-03-28T00:22:08.676Z,80.93
2024-03-28T00:24:36.919Z,81.17
2024-03-28T00:27:06.343Z,81.31
2024-03-28T00:29:34.601Z,80.97
2024-03-28T00:32:02.886Z,81.05
2024-03-28T00:34:31.287Z,81.16
2024-03-28T00:36:59.516Z,81.29
2024-03-28T00:39:27.756Z,81.70
2024-03-28T00:41:55.995Z,82.58
2024-03-28T00:44:24.192Z,82.70
2024-03-28T00:46:52.399Z,83.06
2024-03-28T00:49:20.659Z,83.06
2024-03-28T00:51:49.303Z,83.52
2024-03-28T00:54:17.547Z,83.26
2024-03-28T00:56:45.764Z,83.70
2024-03-28T00:59:13.958Z,83.73
2024-03-28T01:01:42.180Z,84.04
2024-03-28T01:04:25.206Z,84.31
2024-03-28T01:06:53.536Z,84.27
2024-03-28T01:09:22.526Z,84.54
2024-03-28T01:11:50.927Z,84.89
2024-03-28T01:14:19.148Z,84.82
2024-03-28T01:16:47.381Z,85.13
2024-03-28T01:19:15.575Z,85.38
2024-03-28T01:21:43.839Z,85.41
2024-03-28T01:24:12.022Z,85.61
2024-03-28T01:26:40.244Z,85.82
2024-03-28T01:29:08.525Z,86.09
2024-03-28T01:31:36.731Z,85.96
2024-03-28T01:34:04.930Z,85.81
2024-03-28T01:36:33.219Z,85.96
2024-03-28T01:39:01.372Z,86.11
2024-03-28T01:41:29.692Z,86.41
2024-03-28T01:43:58.112Z,86.52
2024-03-28T01:46:40.417Z,86.39
2024-03-28T01:49:15.385Z,86.47
2024-03-28T01:51:45.744Z,86.64
2024-03-28T01:54:15.891Z,87.10
2024-03-28T01:56:45.251Z,87.15
2024-03-28T01:59:16.854Z,87.37
2024-03-28T02:01:46.742Z,87.32
2024-03-28T02:04:15.428Z,87.24
2024-03-28T02:06:43.692Z,87.53
2024-03-28T02:09:12.036Z,87.64
2024-03-28T02:11:40.332Z,87.66
2024-03-28T02:14:08.848Z,87.76
2024-03-28T02:16:38.151Z,87.74
2024-03-28T02:19:06.362Z,87.66
2024-03-28T02:21:34.829Z,87.88
2024-03-28T02:24:03.424Z,88.15
2024-03-28T02:26:31.642Z,88.24
2024-03-28T02:28:59.859Z,88.46
2024-03-28T02:31:28.076Z,88.31
2024-03-28T02:33:56.272Z,87.41
2024-03-28T02:36:24.534Z,86.82
2024-03-28T02:38:52.813Z,87.65
2024-03-28T02:41:22.540Z,88.23
2024-03-28T02:43:50.773Z,87.09
2024-03-28T02:46:19.639Z,87.35
2024-03-28T02:48:47.857Z,88.99
2024-03-28T02:51:16.122Z,89.72
2024-03-28T02:53:44.158Z,90.15
2024-03-28T02:56:12.384Z,89.61
2024-03-28T02:58:40.526Z,89.74
2024-03-28T03:01:09.419Z,89.81
2024-03-28T03:03:37.693Z,89.72
2024-03-28T03:06:07.669Z,88.75
2024-03-28T03:08:36.223Z,88.49
2024-03-28T03:11:04.626Z,89.31
2024-03-28T03:13:32.972Z,89.32
2024-03-28T03:16:04.831Z,89.53
2024-03-28T03:18:33.573Z,89.83
2024-03-28T03:21:08.433Z,88.77
2024-03-28T03:23:38.885Z,89.13
2024-03-28T03:26:14.206Z,88.97
2024-03-28T03:29:00.895Z,89.18
2024-03-28T03:31:47.802Z,89.34
2024-03-28T03:34:34.559Z,89.34
2024-03-28T03:37:15.364Z,89.02
2024-03-28T03:39:43.648Z,89.18
2024-03-28T03:42:12.131Z,89.28
2024-03-28T03:44:40.462Z,89.38
2024-03-28T03:47:09.828Z,89.30
2024-03-28T03:49:44.539Z,89.39
2024-03-28T03:52:15.330Z,89.61
2024-03-28T03:54:44.313Z,89.28
2024-03-28T03:57:13.079Z,89.06
2024-03-28T03:59:41.435Z,88.65
2024-03-28T04:02:09.643Z,88.91
2024-03-28T04:04:37.873Z,88.34
2024-03-28T04:07:06.246Z,88.66
2024-03-28T04:09:34.461Z,88.70
2024-03-28T04:12:02.718Z,88.74
2024-03-28T04:14:31.007Z,88.94
2024-03-28T04:16:59.246Z,89.11
2024-03-28T04:19:28.358Z,89.21
2024-03-28T04:21:57.658Z,89.50
2024-03-28T04:24:25.823Z,89.47
2024-03-28T04:26:55.552Z,89.65
2024-03-28T04:29:23.786Z,89.26
2024-03-28T04:31:52.526Z,89.44
2024-03-28T04:34:20.743Z,89.62
2024-03-28T04:36:48.908Z,89.34
2024-03-28T04:39:17.199Z,89.39
2024-03-28T04:41:46.026Z,89.72
2024-03-28T04:44:14.181Z,90.05
2024-03-28T04:46:42.449Z,89.76
2024-03-28T04:49:10.728Z,89.60
2024-03-28T04:51:39.025Z,88.86
2024-03-28T04:54:07.335Z,88.41
2024-03-28T04:56:40.800Z,87.85
2024-03-28T04:59:10.177Z,88.27
2024-03-28T05:01:38.613Z,89.15
2024-03-28T05:04:07.024Z,89.72
2024-03-28T05:06:35.298Z,90.29
2024-03-28T05:09:03.708Z,91.39
2024-03-28T05:11:32.009Z,91.41
2024-03-28T05:14:00.053Z,90.50
2024-03-28T05:16:29.567Z,90.23
2024-03-28T05:18:57.894Z,90.07
2024-03-28T05:21:26.154Z,90.22
2024-03-28T05:23:55.404Z,89.20
2024-03-28T05:26:23.793Z,88.23
2024-03-28T05:28:52.119Z,87.91
2024-03-28T05:31:24.309Z,87.29
2024-03-28T05:33:52.817Z,87.54
2024-03-28T05:36:21.719Z,87.42
2024-03-28T05:38:49.971Z,87.14
2024-03-28T05:41:18.531Z,87.03
2024-03-28T05:43:54.374Z,86.94
2024-03-28T05:46:22.766Z,87.38
2024-03-28T05:48:51.251Z,87.90
2024-03-28T05:51:20.462Z,88.07
2024-03-28T05:53:49.950Z,87.76
2024-03-28T05:56:21.076Z,87.51
2024-03-28T05:58:49.715Z,87.36
2024-03-28T06:01:19.725Z,87.48
2024-03-28T06:04:00.151Z,87.52
2024-03-28T06:06:28.524Z,87.36
2024-03-28T06:08:56.862Z,87.33
2024-03-28T06:11:25.418Z,87.09
2024-03-28T06:14:10.921Z,87.04
2024-03-28T06:16:39.322Z,87.00
2024-03-28T06:19:15.564Z,86.76
2024-03-28T06:21:47.077Z,86.67
2024-03-28T06:24:15.418Z,86.77
2024-03-28T06:26:43.737Z,86.97
2024-03-28T06:29:12.111Z,86.84
2024-03-28T06:31:48.158Z,86.75
2024-03-28T06:34:18.078Z,86.72
2024-03-28T06:36:46.331Z,86.72
2024-03-28T06:39:15.854Z,86.32
2024-03-28T06:41:44.423Z,85.93
2024-03-28T06:44:12.743Z,85.81
2024-03-28T06:46:41.009Z,85.61
2024-03-28T06:49:09.303Z,85.63
2024-03-28T06:51:39.723Z,85.54
2024-03-28T06:54:10.448Z,85.06
2024-03-28T06:56:38.745Z,84.71
2024-03-28T06:59:07.039Z,85.00
2024-03-28T07:01:35.592Z,85.05
2024-03-28T07:04:03.964Z,85.21
2024-03-28T07:06:34.664Z,85.09
2024-03-28T07:09:08.664Z,85.30
2024-03-28T07:11:39.080Z,85.03
2024-03-28T07:14:09.056Z,84.94
2024-03-28T07:16:37.308Z,84.91
2024-03-28T07:19:06.421Z,84.63
2024-03-28T07:21:34.881Z,84.34
2024-03-28T07:24:03.506Z,84.34
2024-03-28T07:26:32.306Z,84.39
2024-03-28T07:29:03.803Z,84.16
2024-03-28T07:31:34.117Z,83.87
2024-03-28T07:34:02.484Z,83.41
2024-03-28T07:36:30.769Z,83.18
2024-03-28T07:38:59.067Z,83.08
2024-03-28T07:41:27.377Z,82.71
2024-03-28T07:43:55.709Z,82.27
2024-03-28T07:46:26.850Z,81.78
2024-03-28T07:48:55.431Z,81.50
2024-03-28T07:51:27.349Z,81.26
2024-03-28T07:54:00.954Z,81.21
2024-03-28T07:56:32.230Z,81.12
2024-03-28T07:59:01.422Z,80.94
2024-03-28T08:01:29.868Z,80.65
2024-03-28T08:03:59.242Z,80.03
2024-03-28T08:06:27.769Z,79.70
2024-03-28T08:08:56.259Z,79.74
2024-03-28T08:11:24.592Z,80.18
2024-03-28T08:13:58.200Z,79.93
2024-03-28T08:16:33.541Z,79.87
2024-03-28T08:19:03.364Z,79.35
2024-03-28T08:21:31.864Z,79.09
2024-03-28T08:24:00.269Z,78.86
2024-03-28T08:26:33.764Z,78.94
2024-03-28T08:29:04.477Z,78.65
2024-03-28T08:31:33.066Z,78.41
2024-03-28T08:34:01.631Z,77.89
2024-03-28T08:36:30.247Z,78.08
2024-03-28T08:38:59.691Z,77.97
2024-03-28T08:41:28.432Z,77.57
2024-03-28T08:43:56.751Z,77.28
2024-03-28T08:46:25.608Z,77.07
2024-03-28T08:48:55.657Z,77.12
2024-03-28T08:51:24.193Z,76.92
2024-03-28T08:53:52.582Z,77.13
2024-03-28T08:56:21.582Z,76.61
2024-03-28T08:58:49.941Z,76.75
2024-03-28T09:01:18.545Z,76.83
2024-03-28T09:03:49.466Z,76.01
2024-03-28T09:06:18.276Z,75.93
2024-03-28T09:08:54.458Z,75.99
2024-03-28T09:11:29.513Z,75.87
2024-03-28T09:13:58.201Z,75.28
2024-03-28T09:16:27.529Z,75.14
2024-03-28T09:19:00.907Z,73.98
2024-03-28T09:21:29.760Z,73.85
2024-03-28T09:23:58.325Z,73.52
2024-03-28T09:26:27.029Z,73.20
2024-03-28T09:29:00.061Z,73.23
2024-03-28T09:31:29.197Z,72.55
2024-03-28T09:33:57.551Z,73.02
2024-03-28T09:36:26.536Z,72.75
2024-03-28T09:38:55.764Z,72.70
2024-03-28T09:41:28.771Z,72.11
2024-03-28T09:44:06.932Z,71.98
2024-03-28T09:46:36.055Z,72.32
2024-03-28T09:49:12.407Z,72.26
2024-03-28T09:51:48.586Z,72.05
2024-03-28T09:54:17.914Z,71.89
2024-03-28T09:56:46.711Z,71.93
2024-03-28T09:59:17.710Z,71.63
2024-03-28T10:01:48.227Z,71.48
2024-03-28T10:04:23.442Z,71.71
2024-03-28T10:07:07.709Z,71.37
2024-03-28T10:09:56.665Z,71.38
2024-03-28T10:12:25.666Z,71.02
2024-03-28T10:14:55.611Z,70.84
2024-03-28T10:17:40.008Z,70.50
2024-03-28T10:20:12.225Z,70.74
2024-03-28T10:22:53.770Z,70.85
2024-03-28T10:25:27.089Z,70.71
2024-03-28T10:28:01.542Z,70.60
2024-03-28T10:30:32.151Z,70.75
2024-03-28T10:33:05.496Z,70.89
2024-03-28T10:35:43.850Z,70.85
2024-03-28T10:38:15.796Z,70.35
2024-03-28T10:40:51.329Z,69.54
2024-03-28T10:43:23.236Z,69.31
2024-03-28T10:46:06.634Z,69.00
2024-03-28T10:48:37.581Z,68.54
2024-03-28T10:51:37.915Z,68.14
2024-03-28T10:54:15.773Z,68.41
2024-03-28T10:56:55.563Z,68.02
2024-03-28T10:59:26.637Z,67.80
2024-03-28T11:01:55.787Z,67.51
2024-03-28T11:04:26.377Z,67.61
2024-03-28T11:06:55.710Z,67.15
2024-03-28T11:09:25.544Z,67.11
2024-03-28T11:11:58.217Z,66.71
2024-03-28T11:14:27.675Z,66.34
2024-03-28T11:17:07.217Z,66.05
2024-03-28T11:19:36.582Z,65.53
2024-03-28T11:22:05.056Z,65.54
2024-03-28T11:24:33.601Z,65.22
2024-03-28T11:27:02.517Z,65.03
2024-03-28T11:29:32.059Z,65.07
2024-03-28T11:32:02.270Z,64.87
2024-03-28T11:34:31.473Z,65.04
2024-03-28T11:37:00.148Z,64.46
2024-03-28T11:39:29.530Z,64.47
2024-03-28T11:41:59.491Z,63.83
2024-03-28T11:44:35.684Z,63.83
2024-03-28T11:47:05.732Z,63.69
2024-03-28T11:49:35.652Z,63.48
2024-03-28T11:52:07.069Z,63.55
2024-03-28T11:54:37.007Z,63.77
2024-03-28T11:57:05.613Z,63.73
2024-03-28T11:59:34.299Z,63.43
2024-03-28T12:02:04.753Z,63.01
2024-03-28T12:04:34.072Z,63.53
2024-03-28T12:07:11.150Z,63.45
2024-03-28T12:09:51.335Z,63.77
2024-03-28T12:12:21.802Z,63.68
2024-03-28T12:14:53.518Z,63.82
2024-03-28T12:17:22.056Z,64.23
2024-03-28T12:19:51.366Z,64.87
2024-03-28T12:22:19.791Z,64.87
2024-03-28T12:24:48.006Z,65.12
2024-03-28T12:27:16.380Z,64.83
2024-03-28T12:29:44.975Z,65.22
2024-03-28T12:32:19.967Z,64.47
2024-03-28T12:34:52.756Z,63.77
2024-03-28T12:37:21.167Z,64.23
2024-03-28T12:39:49.540Z,64.86
2024-03-28T12:42:36.150Z,64.55
2024-03-28T12:45:23.273Z,63.69
2024-03-28T12:47:53.786Z,63.87
2024-03-28T12:50:26.280Z,62.88
2024-03-28T12:52:54.646Z,62.69
2024-03-28T12:55:24.917Z,62.06
2024-03-28T12:57:53.922Z,61.80
2024-03-28T13:00:22.940Z,62.26
2024-03-28T13:02:51.667Z,62.60
2024-03-28T13:05:20.811Z,62.76
2024-03-28T13:07:59.550Z,62.48
2024-03-28T13:10:29.255Z,61.51
2024-03-28T13:13:07.862Z,60.59
2024-03-28T13:15:36.362Z,59.47
2024-03-28T13:18:05.091Z,59.11
2024-03-28T13:20:34.728Z,58.84
2024-03-28T13:23:03.569Z,59.10
2024-03-28T13:25:32.663Z,58.89
2024-03-28T13:28:08.395Z,58.90
2024-03-28T13:30:36.743Z,57.67
2024-03-28T13:33:05.465Z,55.10
2024-03-28T13:35:33.700Z,53.93
2024-03-28T13:38:04.360Z,54.19
2024-03-28T13:40:32.650Z,50.73
2024-03-28T13:43:00.914Z,48.67
2024-03-28T13:45:29.522Z,48.29
2024-03-28T13:47:57.968Z,46.94
2024-03-28T13:50:26.389Z,46.59
2024-03-28T13:52:54.624Z,46.47
2024-03-28T13:55:26.665Z,45.89
2024-03-28T13:57:54.923Z,46.13
2024-03-28T14:00:23.296Z,45.49
2024-03-28T14:02:51.567Z,45.15
2024-03-28T14:05:24.331Z,45.54
2024-03-28T14:07:52.759Z,44.97
2024-03-28T14:10:21.019Z,45.01
2024-03-28T14:12:50.447Z,45.31
2024-03-28T14:15:18.868Z,44.75
2024-03-28T14:17:47.126Z,44.53
2024-03-28T14:20:15.540Z,43.37
2024-03-28T14:22:43.815Z,42.58
2024-03-28T14:25:12.110Z,40.75
2024-03-28T14:27:40.531Z,40.73
2024-03-28T14:30:09.643Z,41.15
2024-03-28T14:32:37.868Z,41.10
2024-03-28T14:35:06.841Z,41.30
2024-03-28T14:37:35.083Z,41.61
2024-03-28T14:40:07.660Z,41.82
2024-03-28T14:42:35.934Z,42.00
2024-03-28T14:45:04.890Z,42.47
2024-03-28T14:47:35.493Z,42.43
2024-03-28T14:50:03.858Z,42.72
2024-03-28T14:52:32.702Z,43.27
2024-03-28T14:55:02.059Z,43.41
2024-03-28T14:57:30.607Z,43.57
2024-03-28T14:59:58.892Z,43.47
2024-03-28T15:02:27.427Z,43.45
2024-03-28T15:04:57.515Z,43.63
2024-03-28T15:07:28.577Z,42.20
2024-03-28T15:09:58.034Z,41.09
2024-03-28T15:12:26.582Z,40.86
2024-03-28T15:14:54.849Z,40.94
2024-03-28T15:17:23.125Z,41.06
2024-03-28T15:19:53.965Z,41.24
2024-03-28T15:22:23.471Z,40.41
2024-03-28T15:24:51.776Z,39.14
2024-03-28T15:27:22.196Z,39.15
2024-03-28T15:29:51.166Z,39.23
2024-03-28T15:32:19.416Z,39.53
2024-03-28T15:34:47.697Z,39.69
2024-03-28T15:37:16.022Z,39.37
2024-03-28T15:39:44.732Z,38.38
2024-03-28T15:42:12.922Z,37.06
2024-03-28T15:44:41.131Z,36.58
2024-03-28T15:47:09.392Z,36.33
2024-03-28T15:49:37.698Z,36.53
2024-03-28T15:52:06.133Z,36.95
2024-03-28T15:54:34.375Z,37.70
2024-03-28T15:57:03.072Z,38.62
2024-03-28T15:59:34.086Z,39.66
2024-03-28T16:02:02.391Z,40.50
2024-03-28T16:04:34.703Z,41.39
2024-03-28T16:07:06.638Z,42.16
2024-03-28T16:09:34.970Z,42.68
2024-03-28T16:12:08.995Z,43.32
2024-03-28T16:14:37.279Z,43.90
2024-03-28T16:17:08.140Z,44.16
2024-03-28T16:19:37.422Z,44.22
2024-03-28T16:22:05.988Z,44.53
2024-03-28T16:24:34.036Z,44.65
2024-03-28T16:27:02.403Z,45.30
2024-03-28T16:29:30.808Z,45.67
2024-03-28T16:31:59.259Z,45.73
2024-03-28T16:34:27.537Z,45.85
2024-03-28T16:36:55.798Z,45.83
2024-03-28T16:39:25.219Z,45.87
2024-03-28T16:41:54.884Z,45.79
2024-03-28T16:44:23.056Z,45.95
2024-03-28T16:46:51.328Z,46.22
2024-03-28T16:49:19.634Z,45.35
2024-03-28T16:51:49.643Z,43.56
2024-03-28T16:54:20.582Z,42.07
2024-03-28T16:56:48.883Z,41.19
2024-03-28T16:59:17.298Z,40.87
2024-03-28T17:01:45.642Z,40.52
2024-03-28T17:04:13.974Z,40.16
2024-03-28T17:06:42.247Z,40.25
2024-03-28T17:09:11.165Z,40.40
2024-03-28T17:11:39.575Z,40.46
2024-03-28T17:14:07.810Z,40.52
2024-03-28T17:16:36.168Z,40.95
2024-03-28T17:19:04.387Z,41.14
2024-03-28T17:21:32.694Z,41.35
2024-03-28T17:24:01.272Z,41.68
2024-03-28T17:26:29.631Z,41.86
2024-03-28T17:28:57.829Z,42.14
2024-03-28T17:31:26.156Z,42.39
2024-03-28T17:33:54.368Z,42.56
2024-03-28T17:36:22.631Z,43.04
2024-03-28T17:38:54.045Z,42.99
2024-03-28T17:41:22.480Z,43.41
2024-03-28T17:43:50.715Z,43.45
2024-03-28T17:46:18.997Z,43.68
2024-03-28T17:48:50.388Z,43.93
2024-03-28T17:51:18.657Z,44.20
2024-03-28T17:53:46.826Z,44.39
2024-03-28T17:56:15.060Z,44.27
2024-03-28T17:58:43.543Z,44.71
2024-03-28T18:01:11.779Z,44.69
2024-03-28T18:03:40.238Z,44.88
2024-03-28T18:06:08.716Z,45.10
2024-03-28T18:08:44.017Z,45.00
2024-03-28T18:11:12.380Z,45.36
2024-03-28T18:13:44.614Z,45.57
2024-03-28T18:16:14.672Z,45.62
2024-03-28T18:18:42.792Z,46.00
2024-03-28T18:21:10.998Z,46.11
2024-03-28T18:23:41.927Z,46.05
2024-03-28T18:26:10.228Z,46.30
2024-03-28T18:28:38.475Z,46.49
2024-03-28T18:31:07.603Z,46.86
2024-03-28T18:33:35.986Z,46.78
2024-03-28T18:36:04.906Z,46.69
2024-03-28T18:38:33.126Z,47.25
2024-03-28T18:41:12.225Z,47.28
2024-03-28T18:43:40.900Z,47.53
2024-03-28T18:46:10.911Z,47.26
2024-03-28T18:48:39.438Z,47.32
2024-03-28T18:51:08.397Z,46.34
2024-03-28T18:53:37.513Z,46.12
2024-03-28T18:56:05.969Z,46.99
2024-03-28T18:58:35.981Z,46.91
2024-03-28T19:01:06.358Z,46.94
2024-03-28T19:03:35.020Z,46.73
2024-03-28T19:06:03.708Z,46.98
2024-03-28T19:08:31.984Z,46.76
2024-03-28T19:11:00.266Z,46.55
2024-03-28T19:13:28.861Z,46.63
2024-03-28T19:15:58.207Z,46.64
2024-03-28T19:18:27.496Z,47.13
2024-03-28T19:20:58.352Z,46.75
2024-03-28T19:23:28.500Z,46.43
2024-03-28T19:25:56.713Z,46.68
2024-03-28T19:28:24.908Z,46.78
2024-03-28T19:30:53.168Z,46.69
2024-03-28T19:33:21.401Z,47.49
2024-03-28T19:35:52.975Z,46.92
2024-03-28T19:38:22.719Z,47.64
2024-03-28T19:40:51.796Z,47.02
2024-03-28T19:43:20.236Z,47.72
2024-03-28T19:45:48.520Z,48.53
2024-03-28T19:48:16.691Z,48.50
2024-03-28T19:50:44.902Z,48.64
2024-03-28T19:53:13.414Z,49.09
2024-03-28T19:55:41.646Z,49.15
2024-03-28T19:58:09.873Z,49.47
2024-03-28T20:00:38.097Z,49.67
2024-03-28T20:03:06.652Z,49.88
2024-03-28T20:05:34.933Z,49.70
2024-03-28T20:08:05.572Z,50.24
2024-03-28T20:10:33.778Z,50.72
2024-03-28T20:13:02.340Z,50.94
2024-03-28T20:15:30.859Z,50.69
2024-03-28T20:17:59.218Z,50.34
2024-03-28T20:20:27.559Z,50.38
2024-03-28T20:22:55.831Z,50.52
2024-03-28T20:25:24.028Z,50.15
2024-03-28T20:27:52.242Z,50.16
2024-03-28T20:30:20.483Z,49.92
2024-03-28T20:32:48.823Z,49.71
2024-03-28T20:35:17.058Z,49.60
2024-03-28T20:37:47.006Z,49.87
2024-03-28T20:40:15.428Z,49.74
2024-03-28T20:42:43.663Z,50.06
2024-03-28T20:45:12.036Z,50.49
2024-03-28T20:47:40.250Z,50.13
2024-03-28T20:50:09.048Z,49.99
2024-03-28T20:52:37.249Z,49.73
2024-03-28T20:55:07.015Z,49.57
2024-03-28T20:57:35.240Z,49.29
2024-03-28T21:00:03.799Z,49.25
2024-03-28T21:02:32.136Z,49.30
2024-03-28T21:05:01.425Z,49.32
2024-03-28T21:07:49.280Z,49.01
2024-03-28T21:10:35.835Z,49.09
2024-03-28T21:13:04.279Z,48.73
2024-03-28T21:15:32.601Z,48.72
2024-03-28T21:18:00.823Z,48.49
2024-03-28T21:20:29.080Z,48.35
2024-03-28T21:22:57.399Z,48.63
2024-03-28T21:25:25.748Z,48.44
2024-03-28T21:27:56.239Z,48.08
2024-03-28T21:30:24.469Z,47.88
2024-03-28T21:32:52.777Z,47.74
2024-03-28T21:35:20.968Z,48.06
2024-03-28T21:37:49.706Z,48.41
2024-03-28T21:56:06.259Z,50.13
2024-03-28T21:58:35.570Z,50.15
2024-03-28T22:01:07.977Z,49.99
2024-03-28T22:03:40.864Z,50.27
2024-03-28T22:06:09.519Z,50.29
2024-03-28T22:08:39.692Z,50.68
2024-03-28T22:11:13.619Z,50.75
2024-03-28T22:13:43.987Z,50.44
2024-03-28T22:16:12.249Z,49.85
2024-03-28T22:18:41.855Z,49.87
2024-03-28T22:21:10.455Z,49.49
2024-03-28T22:23:38.698Z,49.60
2024-03-28T22:26:07.073Z,49.48
2024-03-28T22:28:36.252Z,49.52
2024-03-28T22:31:04.714Z,49.52
2024-03-28T22:33:32.904Z,49.55
2024-03-28T22:36:01.187Z,49.20
2024-03-28T22:38:29.413Z,49.37
2024-03-28T22:40:57.735Z,49.42
2024-03-28T22:43:27.395Z,49.35
2024-03-28T22:46:00.230Z,49.37
2024-03-28T22:48:28.488Z,49.22
2024-03-28T22:50:56.722Z,48.65
2024-03-28T22:53:24.943Z,48.59
2024-03-28T22:55:57.900Z,48.33
2024-03-28T22:58:26.171Z,48.15
2024-03-28T23:00:58.130Z,48.23
2024-03-28T23:03:27.382Z,48.26
2024-03-28T23:06:06.706Z,48.23
2024-03-28T23:08:35.737Z,48.23
2024-03-28T23:11:04.246Z,48.74
2024-03-28T23:13:32.494Z,49.22
2024-03-28T23:16:00.758Z,48.88
2024-03-28T23:18:28.982Z,49.00
2024-03-28T23:20:57.255Z,48.85
2024-03-28T23:23:25.510Z,48.85
2024-03-28T23:25:53.745Z,48.90
2024-03-28T23:28:21.993Z,48.77
2024-03-28T23:30:50.283Z,49.21
2024-03-28T23:33:18.552Z,49.18
2024-03-28T23:35:46.838Z,48.93
2024-03-28T23:38:15.071Z,48.57
2024-03-28T23:40:47.027Z,48.49
2024-03-28T23:43:15.303Z,48.18
2024-03-28T23:45:53.711Z,48.16
2024-03-28T23:48:22.817Z,48.06
2024-03-28T23:50:51.050Z,48.04
2024-03-28T23:53:19.264Z,47.92
2024-03-28T23:55:48.685Z,48.03
2024-03-28T23:58:17.508Z,47.66
